.
WxDataArchive / Data Records for 2007-05-11
2007-05-10 May 2007 2007-05-12

Data Records for Friday, 11 May 2007

Time	Temp	Chill	HIndex	Humid	Dewpt	 Wind 	HiWind	WindDir	Rain 	Barom 
-----	----	-----	------	-----	-----	------	------	-------	-----	----- 
00:00	59.2	59.2	59.2	82	53.7	0	0	---	0.00	29.869 
00:05	59.0	59.0	59.0	82	53.5	0	0	---	0.00	29.869 
00:10	58.9	58.9	58.9	82	53.4	0	0	---	0.00	29.870 
00:15	58.9	58.9	58.9	84	54.1	0	0	---	0.00	29.871 
00:20	58.9	58.9	58.9	84	54.1	0	0	---	0.00	29.871 
00:25	58.7	58.7	58.7	85	54.2	0	0	---	0.00	29.871 
00:30	58.7	58.7	58.7	84	53.9	0	0	---	0.00	29.871 
00:35	58.6	58.6	58.6	85	54.1	0	0	---	0.00	29.870 
00:40	58.6	58.6	58.6	85	54.1	0	0	---	0.00	29.870 
00:45	58.4	58.4	58.4	86	54.2	0	0	---	0.00	29.870 
00:50	58.4	58.4	58.4	86	54.2	0	0	---	0.00	29.869 
00:55	58.3	58.3	58.3	86	54.1	0	0	---	0.00	29.869 
01:00	58.1	58.1	58.1	86	53.9	0	0	---	0.00	29.868 
01:05	58.0	58.0	58.0	87	54.1	0	0	---	0.00	29.866 
01:10	58.0	58.0	58.0	88	54.5	0	0	---	0.00	29.866 
01:15	57.8	57.8	57.8	88	54.3	0	0	---	0.00	29.864 
01:20	57.8	57.8	57.8	88	54.3	0	0	---	0.00	29.862 
01:25	57.6	57.6	57.6	88	54.1	0	0	---	0.00	29.861 
01:30	57.5	57.5	57.5	88	54.0	0	0	---	0.00	29.859 
01:35	57.3	57.3	57.3	89	54.1	0	0	---	0.00	29.857 
01:40	57.2	57.2	57.2	89	54.0	0	0	---	0.00	29.857 
01:45	57.0	57.0	57.0	89	53.8	0	0	---	0.00	29.856 
01:50	56.9	56.9	56.9	89	53.7	0	0	---	0.00	29.856 
01:55	56.7	56.7	56.7	90	53.8	0	0	---	0.00	29.855 
02:00	56.6	56.6	56.6	90	53.7	0	0	---	0.00	29.856 
02:05	56.5	56.5	56.5	90	53.6	0	0	---	0.00	29.855 
02:10	56.5	56.5	56.5	91	53.9	0	0	---	0.00	29.855 
02:15	56.5	56.5	56.5	91	53.9	0	0	---	0.00	29.855 
02:20	56.3	56.3	56.3	91	53.7	0	0	---	0.00	29.855 
02:25	56.2	56.2	56.2	92	53.9	0	0	---	0.00	29.855 
02:30	56.2	56.2	56.2	92	53.9	0	0	---	0.00	29.855 
02:35	56.2	56.2	56.2	92	53.9	0	0	---	0.00	29.855 
02:40	56.0	56.0	56.0	92	53.7	0	0	---	0.00	29.855 
02:45	56.0	56.0	56.0	92	53.7	0	0	---	0.00	29.855 
02:50	55.9	55.9	55.9	92	53.6	0	0	---	0.00	29.855 
02:55	55.7	55.7	55.7	92	53.4	0	0	---	0.00	29.856 
03:00	55.6	55.6	55.6	92	53.3	0	0	---	0.00	29.856 
03:05	55.6	55.6	55.6	93	53.6	0	0	---	0.00	29.856 
03:10	55.4	55.4	55.4	93	53.4	0	0	---	0.00	29.859 
03:15	55.4	55.4	55.4	93	53.4	0	0	---	0.00	29.860 
03:20	55.3	55.3	55.3	93	53.3	0	0	---	0.00	29.860 
03:25	55.1	55.1	55.1	93	53.1	0	0	---	0.00	29.860 
03:30	55.1	55.1	55.1	93	53.1	0	0	---	0.00	29.861 
03:35	55.0	55.0	55.0	93	53.0	0	0	---	0.00	29.864 
03:40	54.8	54.8	54.8	93	52.8	0	0	---	0.00	29.866 
03:45	54.7	54.7	54.7	93	52.7	0	0	---	0.00	29.867 
03:50	54.5	54.5	54.5	93	52.5	0	0	---	0.00	29.867 
03:55	54.5	54.5	54.5	93	52.5	0	0	---	0.00	29.869 
04:00	54.4	54.4	54.4	93	52.4	0	0	---	0.00	29.869 
04:05	54.4	54.4	54.4	94	52.7	0	0	---	0.00	29.870 
04:10	54.2	54.2	54.2	94	52.5	0	0	---	0.00	29.868 
04:15	54.4	54.4	54.4	94	52.7	0	0	---	0.00	29.869 
04:20	54.2	54.2	54.2	94	52.5	0	0	---	0.00	29.871 
04:25	54.1	54.1	54.1	94	52.4	0	0	---	0.00	29.870 
04:30	54.1	54.1	54.1	94	52.4	0	0	---	0.00	29.871 
04:35	54.1	54.1	54.1	95	52.7	0	0	---	0.00	29.871 
04:40	53.9	53.9	53.9	95	52.5	0	0	---	0.00	29.871 
04:45	53.8	53.8	53.8	94	52.1	0	0	---	0.00	29.871 
04:50	53.6	53.6	53.6	95	52.2	0	0	---	0.00	29.871 
04:55	53.5	53.5	53.5	95	52.1	0	0	---	0.00	29.869 
05:00	53.5	53.5	53.5	95	52.1	0	0	---	0.00	29.870 
05:05	53.5	53.5	53.5	95	52.1	0	0	---	0.00	29.871 
05:10	53.3	53.3	53.3	95	51.9	0	0	---	0.00	29.872 
05:15	53.3	53.3	53.3	95	51.9	0	0	---	0.00	29.872 
05:20	53.2	53.2	53.2	95	51.8	0	0	---	0.00	29.874 
05:25	53.2	53.2	53.2	95	51.8	0	0	---	0.00	29.875 
05:30	53.2	53.2	53.2	95	51.8	0	0	---	0.00	29.875 
05:35	53.2	53.2	53.2	96	52.1	0	0	---	0.00	29.876 
05:40	53.2	53.2	53.2	96	52.1	0	0	---	0.00	29.876 
05:45	53.3	53.3	53.3	96	52.2	0	0	---	0.00	29.878 
05:50	53.5	53.5	53.5	96	52.4	0	0	---	0.00	29.882 
05:55	53.6	53.6	53.6	96	52.5	0	0	---	0.00	29.885 
06:00	53.6	53.6	53.6	96	52.5	0	0	---	0.00	29.883 
06:05	53.8	53.8	53.8	96	52.7	0	0	---	0.00	29.887 
06:10	53.9	53.9	53.9	96	52.8	0	0	---	0.00	29.889 
06:15	54.1	54.1	54.1	96	53.0	0	0	---	0.00	29.889 
06:20	54.4	54.4	54.4	96	53.3	0	0	---	0.00	29.891 
06:25	54.7	54.7	54.7	96	53.6	0	0	---	0.00	29.889 
06:30	55.1	55.1	55.1	96	54.0	0	0	---	0.00	29.890 
06:35	55.7	55.7	55.7	96	54.6	0	0	---	0.00	29.890 
06:40	56.5	56.5	56.5	96	55.4	0	0	---	0.00	29.891 
06:45	57.0	57.0	57.0	96	55.9	0	0	---	0.00	29.890 
06:50	58.0	58.0	58.0	94	56.3	0	0	---	0.00	29.890 
06:55	58.9	58.9	58.9	91	56.3	0	0	---	0.00	29.890 
07:00	59.9	59.9	59.9	87	56.0	0	0	---	0.00	29.892 
07:05	60.7	60.7	60.7	82	55.2	0	1	270	0.00	29.895 
07:10	61.5	61.5	61.5	80	55.3	0	0	---	0.00	29.896 
07:15	62.1	62.1	62.1	77	54.8	0	0	---	0.00	29.898 
07:20	62.7	62.7	62.7	76	55.0	0	2	270	0.00	29.899 
07:25	63.1	63.1	63.1	76	55.4	0	1	270	0.00	29.900 
07:30	63.4	63.4	63.4	75	55.3	0	0	---	0.00	29.902 
07:35	63.9	63.9	63.9	75	55.8	0	1	270	0.00	29.902 
07:40	64.2	64.2	64.2	73	55.4	0	1	270	0.00	29.904 
07:45	64.7	64.7	64.7	74	56.2	0	0	---	0.00	29.902 
07:50	65.2	65.2	65.2	73	56.3	0	0	---	0.00	29.902 
07:55	65.6	65.6	65.6	71	55.9	0	1	270	0.00	29.902 
08:00	66.3	66.3	66.3	69	55.8	0	1	270	0.00	29.903 
08:05	66.9	66.9	66.9	64	54.3	0	2	270	0.00	29.905 
08:10	67.6	67.6	67.6	63	54.5	0	2	270	0.00	29.906 
08:15	68.4	68.4	68.4	64	55.7	0	1	270	0.00	29.907 
08:20	68.9	68.9	68.9	62	55.3	0	1	270	0.00	29.907 
08:25	69.4	69.4	69.4	62	55.8	0	1	270	0.00	29.909 
08:30	70.1	70.1	70.1	61	56.0	0	1	270	0.00	29.908 
08:35	71.3	71.3	71.3	60	56.7	0	2	270	0.00	29.911 
08:40	72.3	72.3	72.3	56	55.7	1	2	270	0.00	29.909 
08:45	72.8	72.8	72.8	52	54.1	1	3	45	0.00	29.909 
08:50	73.0	73.0	73.0	50	53.2	1	3	45	0.00	29.910 
08:55	73.5	73.5	73.5	50	53.7	0	2	45	0.00	29.911 
09:00	74.0	74.0	74.0	53	55.8	0	1	45	0.00	29.910 
09:05	74.4	74.4	74.4	50	54.5	1	3	45	0.00	29.915 
09:10	74.0	74.0	74.0	50	54.2	1	3	45	0.00	29.914 
09:15	73.9	73.9	73.9	52	55.1	2	5	112	0.00	29.915 
09:20	73.7	73.7	73.7	54	56.0	2	4	90	0.00	29.916 
09:25	73.7	73.7	73.7	53	55.5	2	4	90	0.00	29.916 
09:30	73.7	73.7	73.7	54	56.0	0	2	90	0.00	29.917 
09:35	73.9	73.9	73.9	53	55.7	0	2	90	0.00	29.916 
09:40	74.4	74.4	74.4	52	55.6	0	1	90	0.00	29.916 
09:45	74.9	74.9	74.9	53	56.6	0	2	90	0.00	29.915 
09:50	75.3	75.3	77.7	53	57.0	0	2	90	0.00	29.914 
09:55	75.6	75.6	77.9	51	56.2	0	3	90	0.00	29.915 
10:00	76.0	76.0	78.1	52	57.1	1	4	68	0.00	29.913 
10:05	76.3	76.3	78.2	50	56.3	0	3	68	0.00	29.916 
10:10	76.7	76.7	78.4	51	57.2	0	3	68	0.00	29.916 
10:15	77.0	77.0	78.5	48	55.8	0	2	68	0.00	29.917 
10:20	77.4	77.4	78.8	48	56.1	0	3	68	0.00	29.918 
10:25	77.4	77.4	78.6	45	54.4	0	1	68	0.00	29.918 
10:30	77.6	77.6	78.9	48	56.3	2	4	90	0.00	29.918 
10:35	77.6	77.6	78.9	48	56.3	0	1	90	0.00	29.916 
10:40	77.4	77.4	78.6	45	54.4	0	2	90	0.00	29.918 
10:45	77.9	77.9	79.1	49	57.2	0	3	90	0.00	29.916 
10:50	78.5	78.5	79.2	43	54.1	2	4	112	0.00	29.917 
10:55	78.8	78.8	79.6	46	56.2	1	2	112	0.00	29.917 
11:00	78.8	78.8	79.6	47	56.8	1	3	112	0.00	29.919 
11:05	78.8	78.8	79.6	46	56.2	0	2	112	0.00	29.920 
11:10	79.0	79.0	79.8	47	57.0	1	3	112	0.00	29.923 
11:15	79.4	79.4	79.8	44	55.6	1	4	112	0.00	29.925 
11:20	79.6	79.6	80.2	47	57.6	1	2	112	0.00	29.925 
11:25	79.4	79.4	79.8	44	55.6	1	3	45	0.00	29.924 
11:30	79.6	79.6	80.0	45	56.4	0	2	90	0.00	29.925 
11:35	79.8	79.8	80.5	49	58.9	0	4	90	0.00	29.924 
11:40	79.9	79.9	80.6	49	59.0	1	5	90	0.00	29.924 
11:45	79.4	79.4	79.8	43	54.9	0	2	270	0.00	29.923 
11:50	79.6	79.6	79.9	43	55.1	1	3	270	0.00	29.925 
11:55	80.1	80.1	80.1	41	54.2	1	2	158	0.00	29.926 
12:00	80.3	80.3	80.4	43	55.7	1	3	135	0.00	29.925 
12:05	80.7	80.7	81.4	50	60.3	1	2	112	0.00	29.922 
12:10	80.9	80.9	81.0	44	56.9	2	5	90	0.00	29.921 
12:15	80.7	80.7	80.7	43	56.1	2	6	112	0.00	29.920 
12:20	80.7	80.7	81.0	46	58.0	2	4	112	0.00	29.918 
12:25	79.9	79.9	80.0	42	54.7	1	3	112	0.00	29.918 
12:30	80.1	80.1	80.5	46	57.4	1	3	248	0.00	29.918 
12:35	80.7	80.7	81.2	48	59.2	1	3	90	0.00	29.919 
12:40	80.7	80.7	80.9	45	57.4	1	5	90	0.00	29.919 
12:45	80.3	80.3	80.5	44	56.4	2	4	90	0.00	29.917 
12:50	80.1	80.1	80.1	41	54.2	3	7	90	0.00	29.917 
12:55	80.1	80.1	80.3	43	55.6	1	6	112	0.00	29.917 
13:00	80.5	80.5	80.1	38	52.5	0	2	112	0.00	29.917 
13:05	80.9	80.9	80.5	39	53.6	1	4	112	0.00	29.917 
13:10	81.2	81.2	81.1	43	56.5	0	2	112	0.00	29.917 
13:15	81.4	81.4	80.9	39	54.0	2	4	112	0.00	29.917 
13:20	81.2	81.2	80.9	41	55.2	2	5	90	0.00	29.916 
13:25	81.1	81.1	80.6	39	53.8	1	4	90	0.00	29.917 
13:30	81.2	81.2	81.0	42	55.9	2	4	90	0.00	29.916 
13:35	81.6	81.6	81.5	43	56.9	2	5	90	0.00	29.917 
13:40	81.2	81.2	80.7	39	53.9	3	5	90	0.00	29.917 
13:45	81.1	81.1	80.9	42	55.8	1	4	90	0.00	29.916 
13:50	81.2	81.2	80.6	38	53.1	1	3	112	0.00	29.916 
13:55	81.4	81.4	81.1	41	55.4	1	3	135	0.00	29.915 
14:00	81.6	81.6	81.1	40	54.9	2	5	112	0.00	29.916 
14:05	81.8	81.8	81.2	39	54.4	3	10	112	0.00	29.915 
14:10	82.0	82.0	81.9	44	57.9	3	5	112	0.00	29.914 
14:15	82.6	82.6	82.1	41	56.5	1	3	90	0.00	29.912 
14:20	83.4	83.4	82.6	39	55.8	2	5	90	0.00	29.914 
14:25	83.4	83.4	82.7	40	56.5	2	4	90	0.00	29.914 
14:30	83.4	83.4	82.3	37	54.4	3	7	90	0.00	29.914 
14:35	83.0	83.0	81.7	35	52.5	3	6	90	0.00	29.915 
14:40	82.8	82.8	82.4	42	57.3	2	5	90	0.00	29.914 
14:45	82.6	82.6	81.8	39	55.1	2	7	90	0.00	29.913 
14:50	82.2	82.2	81.5	39	54.7	2	5	112	0.00	29.912 
14:55	82.0	82.0	81.2	38	53.9	2	5	112	0.00	29.911 
15:00	81.6	81.6	81.1	40	54.9	2	5	112	0.00	29.909 
15:05	81.4	81.4	81.2	42	56.1	2	4	90	0.00	29.910 
15:10	81.6	81.6	80.8	37	52.8	1	3	90	0.00	29.909 
15:15	81.6	81.6	81.0	39	54.2	1	4	112	0.00	29.909 
15:20	81.4	81.4	80.9	39	54.0	2	4	112	0.00	29.909 
15:25	81.2	81.2	80.6	38	53.1	2	5	112	0.00	29.909 
15:30	81.4	81.4	81.2	42	56.1	1	3	90	0.00	29.907 
15:35	81.8	81.8	81.3	40	55.1	1	4	68	0.00	29.905 
15:40	82.4	82.4	81.7	39	54.9	0	2	68	0.00	29.903 
15:45	82.8	82.8	82.0	39	55.3	2	5	68	0.00	29.903 
15:50	82.6	82.6	81.7	38	54.4	0	2	112	0.00	29.903 
15:55	82.8	82.8	81.8	37	53.8	0	3	112	0.00	29.904 
16:00	83.2	83.2	82.1	37	54.2	0	2	248	0.00	29.902 
16:05	83.0	83.0	82.0	37	54.0	1	4	90	0.00	29.902 
16:10	83.2	83.2	82.3	38	54.9	1	3	90	0.00	29.901 
16:15	83.0	83.0	81.7	35	52.5	1	3	90	0.00	29.899 
16:20	82.6	82.6	81.6	37	53.7	1	4	112	0.00	29.897 
16:25	82.4	82.4	81.3	36	52.7	2	5	112	0.00	29.890 
16:30	82.6	82.6	81.8	39	55.1	1	4	68	0.00	29.888 
16:35	82.6	82.6	81.5	36	52.9	3	6	112	0.00	29.891 
16:40	82.2	82.2	81.2	36	52.6	3	6	90	0.00	29.894 
16:45	81.6	81.6	80.9	38	53.5	1	3	90	0.00	29.893 
16:50	81.1	81.1	80.2	34	50.0	2	5	90	0.00	29.895 
16:55	80.9	80.9	80.8	42	55.6	1	2	90	0.00	29.894 
17:00	80.9	80.9	80.3	37	52.2	1	3	90	0.00	29.893 
17:05	80.7	80.7	80.2	38	52.7	2	4	90	0.00	29.890 
17:10	80.7	80.7	80.2	38	52.7	1	4	90	0.00	29.890 
17:15	80.7	80.7	80.1	36	51.2	1	3	90	0.00	29.890 
17:20	80.7	80.7	80.5	41	54.8	1	2	112	0.00	29.889 
17:25	80.5	80.5	80.2	39	53.2	0	2	112	0.00	29.889 
17:30	80.5	80.5	80.2	39	53.2	1	2	112	0.00	29.889 
17:35	80.7	80.7	80.1	36	51.2	2	4	112	0.00	29.889 
17:40	80.5	80.5	80.0	37	51.8	1	3	112	0.00	29.889 
17:45	80.5	80.5	80.1	38	52.5	1	2	112	0.00	29.889 
17:50	80.3	80.3	79.8	36	50.9	1	2	112	0.00	29.890 
17:55	80.3	80.3	79.9	37	51.6	1	2	112	0.00	29.890 
18:00	80.3	80.3	80.1	39	53.1	1	2	112	0.00	29.889 
18:05	80.3	80.3	79.9	37	51.6	1	4	112	0.00	29.885 
18:10	80.1	80.1	79.8	37	51.5	1	3	90	0.00	29.886 
18:15	80.1	80.1	79.8	37	51.5	1	3	90	0.00	29.889 
18:20	79.9	79.9	79.5	35	49.8	1	3	90	0.00	29.890 
18:25	79.8	79.8	79.9	41	54.0	0	2	90	0.00	29.889 
18:30	79.6	79.6	79.4	37	51.0	1	3	90	0.00	29.891 
18:35	79.4	79.4	79.6	41	53.6	0	2	90	0.00	29.892 
18:40	79.0	79.0	79.4	41	53.3	0	2	90	0.00	29.897 
18:45	78.6	78.6	79.2	42	53.6	0	0	---	0.00	29.898 
18:50	78.3	78.3	79.1	43	53.9	0	0	---	0.00	29.899 
18:55	77.9	77.9	78.9	45	54.8	0	0	---	0.00	29.899 
19:00	77.4	77.4	78.7	46	55.0	0	0	---	0.00	29.899 
19:05	76.8	76.8	78.4	46	54.4	0	0	---	0.00	29.896 
19:10	76.5	76.5	78.3	47	54.7	0	1	90	0.00	29.897 
19:15	76.1	76.1	78.1	48	55.0	0	0	---	0.00	29.897 
19:20	75.8	75.8	78.0	49	55.3	0	0	---	0.00	29.898 
19:25	75.4	75.4	77.8	49	54.9	0	0	---	0.00	29.900 
19:30	75.1	75.1	77.7	51	55.7	0	0	---	0.00	29.901 
19:35	74.6	74.6	74.6	51	55.3	0	0	---	0.00	29.902 
19:40	74.2	74.2	74.2	52	55.4	0	0	---	0.00	29.903 
19:45	74.0	74.0	74.0	53	55.8	0	0	---	0.00	29.907 
19:50	73.7	73.7	73.7	53	55.5	0	0	---	0.00	29.911 
19:55	73.3	73.3	73.3	53	55.1	0	0	---	0.00	29.914 
20:00	73.0	73.0	73.0	55	55.9	0	0	---	0.00	29.912 
20:05	72.7	72.7	72.7	54	55.1	0	0	---	0.00	29.910 
20:10	72.3	72.3	72.3	55	55.2	0	0	---	0.00	29.911 
20:15	72.0	72.0	72.0	54	54.4	0	0	---	0.00	29.913 
20:20	71.6	71.6	71.6	55	54.6	0	0	---	0.00	29.914 
20:25	71.3	71.3	71.3	59	56.2	0	0	---	0.00	29.919 
20:30	70.8	70.8	70.8	61	56.7	0	1	90	0.00	29.925 
20:35	70.9	70.9	70.9	59	55.8	0	1	90	0.00	29.927 
20:40	71.5	71.5	71.5	61	57.3	0	2	90	0.00	29.926 
20:45	71.6	71.6	71.6	60	57.0	0	3	90	0.00	29.928 
20:50	71.6	71.6	71.6	61	57.4	0	1	90	0.00	29.929 
20:55	71.3	71.3	71.3	62	57.6	0	1	90	0.00	29.931 
21:00	70.9	70.9	70.9	63	57.7	0	1	90	0.00	29.938 
21:05	70.9	70.9	70.9	64	58.1	0	1	90	0.00	29.939 
21:10	70.8	70.8	70.8	65	58.4	0	1	90	0.00	29.940 
21:15	70.6	70.6	70.6	65	58.2	0	1	90	0.00	29.942 
21:20	70.4	70.4	70.4	66	58.5	0	2	90	0.00	29.943 
21:25	70.3	70.3	70.3	67	58.8	0	1	90	0.00	29.944 
21:30	70.1	70.1	70.1	67	58.6	0	1	90	0.00	29.946 
21:35	69.8	69.8	69.8	67	58.3	0	1	90	0.00	29.949 
21:40	69.3	69.3	69.3	68	58.3	0	1	90	0.00	29.949 
21:45	69.1	69.1	69.1	68	58.1	0	2	90	0.00	29.945 
21:50	68.8	68.8	68.8	68	57.8	0	0	---	0.00	29.944 
21:55	68.4	68.4	68.4	69	57.8	0	0	---	0.00	29.944 
22:00	67.9	67.9	67.9	69	57.3	0	0	---	0.00	29.945 
22:05	67.4	67.4	67.4	70	57.3	0	0	---	0.00	29.944 
22:10	67.3	67.3	67.3	71	57.6	0	0	---	0.00	29.945 
22:15	66.9	66.9	66.9	71	57.2	0	0	---	0.00	29.945 
22:20	66.8	66.8	66.8	72	57.5	0	0	---	0.00	29.947 
22:25	66.6	66.6	66.6	72	57.3	0	0	---	0.00	29.948 
22:30	66.4	66.4	66.4	72	57.1	0	0	---	0.00	29.949 
22:35	66.1	66.1	66.1	73	57.2	0	0	---	0.00	29.948 
22:40	66.0	66.0	66.0	73	57.1	0	0	---	0.00	29.949 
22:45	65.6	65.6	65.6	74	57.1	0	1	90	0.00	29.954 
22:50	65.6	65.6	65.6	74	57.1	0	1	90	0.00	29.958 
22:55	65.5	65.5	65.5	74	57.0	0	1	90	0.00	29.958 
23:00	65.3	65.3	65.3	74	56.8	1	3	90	0.00	29.959 
23:05	65.2	65.2	65.2	75	57.1	0	2	90	0.00	29.961 
23:10	65.0	65.0	65.0	75	56.9	0	1	90	0.00	29.963 
23:15	64.8	64.8	64.8	76	57.0	0	0	---	0.00	29.965 
23:20	64.7	64.7	64.7	76	57.0	0	1	90	0.00	29.968 
23:25	64.7	64.7	64.7	77	57.3	1	3	90	0.00	29.969 
23:30	65.2	65.2	65.2	77	57.8	2	5	90	0.00	29.971 
23:35	65.3	65.3	65.3	77	57.9	2	5	112	0.00	29.971 
23:40	65.2	65.2	65.2	77	57.8	2	6	90	0.00	29.974 
23:45	64.8	64.8	64.8	77	57.4	1	4	90	0.00	29.974 
23:50	64.5	64.5	64.5	74	56.0	3	7	90	0.00	29.973 
23:55	64.0	64.0	64.0	73	55.2	2	9	90	0.00	29.976 

CoCoRaHS
IN-AL-39
A2 Web Hosting
Creative Commons License
GoDaddy
Look for:

loaded 2017-10-16 20:11:40 • last modified 2010-11-18 10:43:29
Privacy PolicyDisclaimer
• wx.awcolley.com is powered by PmWiki v.2002016 •
• all content (unless otherwise noted) © 2017 A W Colley